createdAt,value
2018-05-13T00:00:22.173Z,100586.11
2018-05-13T00:02:50.348Z,100582.16
2018-05-13T00:05:18.573Z,100579.94
2018-05-13T00:07:46.740Z,100579.47
2018-05-13T00:10:14.915Z,100579.24
2018-05-13T00:12:43.134Z,100579.24
2018-05-13T00:15:11.317Z,100576.27
2018-05-13T00:17:39.491Z,100580.55
2018-05-13T00:20:07.691Z,100577.18
2018-05-13T00:22:35.889Z,100575.80
2018-05-13T00:25:04.074Z,100574.23
2018-05-13T00:27:32.292Z,100579.30
2018-05-13T00:30:00.475Z,100580.35
2018-05-13T00:32:28.664Z,100584.38
2018-05-13T00:34:56.908Z,100583.09
2018-05-13T00:37:25.167Z,100580.18
2018-05-13T00:39:53.368Z,100579.00
2018-05-13T00:42:21.515Z,100573.83
2018-05-13T00:44:49.717Z,100578.28
2018-05-13T00:47:17.948Z,100572.00
2018-05-13T00:49:46.138Z,100573.01
2018-05-13T00:52:14.354Z,100573.09
2018-05-13T00:54:55.320Z,100571.03
2018-05-13T00:57:23.514Z,100563.98
2018-05-13T00:59:51.683Z,100562.89
2018-05-13T01:02:19.891Z,100569.62
2018-05-13T01:04:48.102Z,100555.70
2018-05-13T01:07:16.323Z,100550.38
2018-05-13T01:09:44.499Z,100557.52
2018-05-13T01:12:12.674Z,100560.74
2018-05-13T01:14:40.897Z,100562.92
2018-05-13T01:17:09.045Z,100554.55
2018-05-13T01:19:37.228Z,100556.48
2018-05-13T01:22:05.440Z,100555.30
2018-05-13T01:24:33.617Z,100556.00
2018-05-13T01:27:01.829Z,100554.41
2018-05-13T01:29:30.025Z,100551.66
2018-05-13T01:31:58.212Z,100552.55
2018-05-13T01:34:26.396Z,100552.14
2018-05-13T01:36:54.560Z,100555.95
2018-05-13T01:39:22.756Z,100545.23
2018-05-13T01:41:50.951Z,100548.16
2018-05-13T01:44:19.104Z,100550.25
2018-05-13T01:46:47.297Z,100554.17
2018-05-13T01:49:15.458Z,100548.11
2018-05-13T01:51:43.658Z,100548.77
2018-05-13T01:54:11.877Z,100554.59
2018-05-13T01:56:40.098Z,100543.30
2018-05-13T01:59:08.264Z,100540.54
2018-05-13T02:01:36.443Z,100534.23
2018-05-13T02:04:04.679Z,100540.48
2018-05-13T02:06:32.845Z,100535.94
2018-05-13T02:09:01.045Z,100535.84
2018-05-13T02:11:29.292Z,100539.67
2018-05-13T02:13:57.424Z,100543.08
2018-05-13T02:16:25.603Z,100541.60
2018-05-13T02:18:53.776Z,100537.40
2018-05-13T02:21:21.973Z,100529.45
2018-05-13T02:23:50.205Z,100523.44
2018-05-13T02:26:18.390Z,100520.09
2018-05-13T02:28:46.568Z,100522.77
2018-05-13T02:31:14.753Z,100522.05
2018-05-13T02:33:42.934Z,100521.20
2018-05-13T02:36:11.159Z,100524.05
2018-05-13T02:38:39.370Z,100517.38
2018-05-13T02:41:07.566Z,100522.77
2018-05-13T02:43:35.765Z,100520.70
2018-05-13T02:46:03.975Z,100527.00
2018-05-13T02:48:32.151Z,100524.02
2018-05-13T02:51:00.333Z,100528.85
2018-05-13T02:53:28.552Z,100527.25
2018-05-13T02:55:56.772Z,100528.56
2018-05-13T02:58:24.961Z,100520.43
2018-05-13T03:00:53.114Z,100526.09
2018-05-13T03:03:21.313Z,100521.36
2018-05-13T03:05:49.527Z,100523.72
2018-05-13T03:08:17.749Z,100517.42
2018-05-13T03:10:45.921Z,100512.26
2018-05-13T03:13:14.144Z,100513.34
2018-05-13T03:15:42.296Z,100505.98
2018-05-13T03:18:10.467Z,100514.09
2018-05-13T03:20:38.664Z,100516.02
2018-05-13T03:23:06.868Z,100514.52
2018-05-13T03:25:35.067Z,100512.72
2018-05-13T03:28:03.287Z,100513.77
2018-05-13T03:30:31.473Z,100509.74
2018-05-13T03:32:59.667Z,100522.06
2018-05-13T03:35:27.851Z,100521.95
2018-05-13T03:37:56.055Z,100521.73
2018-05-13T03:40:24.254Z,100517.42
2018-05-13T03:42:52.459Z,100519.55
2018-05-13T03:45:20.634Z,100526.11
2018-05-13T03:47:48.841Z,100523.08
2018-05-13T03:50:17.022Z,100527.09
2018-05-13T03:52:45.208Z,100525.39
2018-05-13T03:55:13.374Z,100529.77
2018-05-13T03:57:41.573Z,100539.70
2018-05-13T04:00:09.755Z,100543.10
2018-05-13T04:02:37.957Z,100545.42
2018-05-13T04:05:06.158Z,100538.89
2018-05-13T04:07:43.127Z,100548.39
2018-05-13T04:11:01.493Z,100554.31
2018-05-13T04:14:29.482Z,100560.88
2018-05-13T04:16:57.669Z,100567.52
2018-05-13T04:19:25.849Z,100566.66
2018-05-13T04:21:54.063Z,100569.64
2018-05-13T04:24:22.226Z,100569.64
2018-05-13T04:26:50.425Z,100566.51
2018-05-13T04:29:18.586Z,100567.27
2018-05-13T04:31:46.790Z,100568.96
2018-05-13T04:34:15.218Z,100574.98
2018-05-13T04:36:43.401Z,100580.80
2018-05-13T04:39:11.591Z,100582.30
2018-05-13T04:41:39.813Z,100572.30
2018-05-13T04:44:07.977Z,100574.92
2018-05-13T04:46:36.161Z,100575.02
2018-05-13T04:49:04.347Z,100574.27
2018-05-13T04:51:32.525Z,100569.23
2018-05-13T04:54:00.720Z,100575.38
2018-05-13T04:56:28.956Z,100574.53
2018-05-13T04:58:57.109Z,100570.80
2018-05-13T05:01:25.288Z,100571.98
2018-05-13T05:03:53.444Z,100566.95
2018-05-13T05:06:21.653Z,100575.61
2018-05-13T05:08:49.852Z,100571.53
2018-05-13T05:11:18.033Z,100572.94
2018-05-13T05:13:46.213Z,100575.78
2018-05-13T05:16:14.404Z,100582.16
2018-05-13T05:18:42.582Z,100585.98
2018-05-13T05:21:10.782Z,100600.86
2018-05-13T05:23:39.148Z,100595.92
2018-05-13T05:26:07.346Z,100590.27
2018-05-13T05:28:35.522Z,100591.58
2018-05-13T05:31:03.709Z,100579.34
2018-05-13T05:33:31.899Z,100586.73
2018-05-13T05:36:00.094Z,100586.23
2018-05-13T05:38:28.289Z,100592.38
2018-05-13T05:40:56.500Z,100585.38
2018-05-13T05:43:24.689Z,100584.55
2018-05-13T05:45:52.867Z,100588.53
2018-05-13T05:48:21.133Z,100589.20
2018-05-13T05:50:49.227Z,100597.04
2018-05-13T05:53:17.402Z,100602.16
2018-05-13T05:55:45.564Z,100603.78
2018-05-13T05:58:13.764Z,100603.39
2018-05-13T06:00:41.929Z,100598.34
2018-05-13T06:03:10.183Z,100613.95
2018-05-13T06:05:38.291Z,100626.05
2018-05-13T06:08:06.481Z,100635.50
2018-05-13T06:10:34.624Z,100641.77
2018-05-13T06:13:02.823Z,100649.00
2018-05-13T06:15:31.001Z,100655.72
2018-05-13T06:17:59.240Z,100668.52
2018-05-13T06:20:27.403Z,100679.44
2018-05-13T06:22:55.569Z,100685.95
2018-05-13T06:25:23.745Z,100693.34
2018-05-13T06:27:51.931Z,100690.45
2018-05-13T06:30:20.147Z,100687.96
2018-05-13T06:32:48.311Z,100698.63
2018-05-13T06:35:16.485Z,100706.09
2018-05-13T06:37:44.721Z,100703.48
2018-05-13T06:40:12.902Z,100699.13
2018-05-13T06:42:41.086Z,100675.83
2018-05-13T06:45:09.341Z,100664.80
2018-05-13T06:47:37.434Z,100655.97
2018-05-13T06:50:05.601Z,100650.50
2018-05-13T06:52:33.797Z,100659.47
2018-05-13T06:55:02.012Z,100651.84
2018-05-13T06:57:30.234Z,100660.12
2018-05-13T06:59:58.391Z,100664.30
2018-05-13T07:02:26.535Z,100672.80
2018-05-13T07:04:54.742Z,100675.72
2018-05-13T07:07:22.924Z,100676.42
2018-05-13T07:09:51.109Z,100684.55
2018-05-13T07:12:19.318Z,100692.32
2018-05-13T07:14:47.525Z,100698.61
2018-05-13T07:17:15.717Z,100700.25
2018-05-13T07:19:43.917Z,100706.00
2018-05-13T07:22:12.117Z,100710.11
2018-05-13T07:24:40.324Z,100711.88
2018-05-13T07:27:08.499Z,100707.32
2018-05-13T07:29:36.668Z,100713.98
2018-05-13T07:32:04.839Z,100721.47
2018-05-13T07:34:33.049Z,100720.09
2018-05-13T07:37:01.220Z,100713.62
2018-05-13T07:39:29.396Z,100714.01
2018-05-13T07:41:57.550Z,100714.09
2018-05-13T07:44:25.731Z,100715.58
2018-05-13T07:46:54.206Z,100721.09
2018-05-13T07:49:22.407Z,100721.09
2018-05-13T07:51:50.584Z,100718.55
2018-05-13T07:54:18.736Z,100705.83
2018-05-13T07:56:46.925Z,100697.98
2018-05-13T07:59:15.084Z,100700.98
2018-05-13T08:01:43.347Z,100686.86
2018-05-13T08:04:11.539Z,100685.15
2018-05-13T08:06:39.720Z,100685.55
2018-05-13T08:09:07.872Z,100682.48
2018-05-13T08:11:36.069Z,100692.33
2018-05-13T08:14:04.279Z,100687.25
2018-05-13T08:16:32.400Z,100694.10
2018-05-13T08:19:00.590Z,100694.73
2018-05-13T08:21:28.789Z,100694.66
2018-05-13T08:23:57.005Z,100691.70
2018-05-13T08:26:25.257Z,100699.11
2018-05-13T08:28:53.371Z,100713.19
2018-05-13T08:31:21.556Z,100724.81
2018-05-13T08:33:49.807Z,100725.52
2018-05-13T08:36:17.996Z,100735.77
2018-05-13T08:38:46.184Z,100739.64
2018-05-13T08:41:14.344Z,100743.50
2018-05-13T08:43:42.542Z,100738.50
2018-05-13T08:46:10.717Z,100733.63
2018-05-13T08:48:38.955Z,100738.02
2018-05-13T08:51:07.124Z,100734.99
2018-05-13T08:53:35.298Z,100737.23
2018-05-13T08:56:03.493Z,100735.90
2018-05-13T08:58:31.657Z,100732.77
2018-05-13T09:00:59.872Z,100739.57
2018-05-13T09:03:28.046Z,100739.34
2018-05-13T09:05:56.200Z,100748.31
2018-05-13T09:08:24.400Z,100747.38
2018-05-13T09:10:52.541Z,100745.55
2018-05-13T09:13:20.722Z,100747.91
2018-05-13T09:15:48.886Z,100754.80
2018-05-13T09:18:17.061Z,100755.97
2018-05-13T09:20:45.235Z,100762.13
2018-05-13T09:23:13.433Z,100766.48
2018-05-13T09:25:41.593Z,100760.95
2018-05-13T09:28:09.812Z,100758.41
2018-05-13T09:30:37.967Z,100744.02
2018-05-13T09:33:06.237Z,100734.14
2018-05-13T09:35:34.345Z,100725.03
2018-05-13T09:38:02.542Z,100733.27
2018-05-13T09:40:30.699Z,100743.42
2018-05-13T09:42:58.872Z,100739.34
2018-05-13T09:45:27.047Z,100740.27
2018-05-13T09:47:55.268Z,100743.61
2018-05-13T09:50:23.442Z,100744.44
2018-05-13T09:52:51.676Z,100747.67
2018-05-13T09:55:19.807Z,100754.95
2018-05-13T09:57:48.016Z,100758.73
2018-05-13T10:00:16.172Z,100751.63
2018-05-13T10:02:44.372Z,100743.97
2018-05-13T10:05:12.570Z,100747.30
2018-05-13T10:07:40.759Z,100757.06
2018-05-13T10:10:08.986Z,100747.33
2018-05-13T10:12:37.159Z,100747.41
2018-05-13T10:15:05.381Z,100741.72
2018-05-13T10:17:33.581Z,100740.91
2018-05-13T10:20:01.797Z,100745.94
2018-05-13T10:22:29.981Z,100749.61
2018-05-13T10:24:58.151Z,100754.81
2018-05-13T10:27:26.365Z,100764.70
2018-05-13T10:29:54.574Z,100771.30
2018-05-13T10:32:22.758Z,100779.86
2018-05-13T10:34:50.931Z,100774.62
2018-05-13T10:37:19.122Z,100773.42
2018-05-13T10:39:47.365Z,100785.88
2018-05-13T10:42:15.505Z,100794.37
2018-05-13T10:44:43.718Z,100804.92
2018-05-13T10:47:11.996Z,100820.80
2018-05-13T10:49:40.185Z,100805.20
2018-05-13T10:52:08.350Z,100808.61
2018-05-13T10:54:36.532Z,100807.05
2018-05-13T10:57:04.780Z,100799.52
2018-05-13T10:59:32.966Z,100794.55
2018-05-13T11:02:01.136Z,100777.71
2018-05-13T11:04:29.315Z,100758.95
2018-05-13T11:06:57.472Z,100762.09
2018-05-13T11:09:25.663Z,100762.00
2018-05-13T11:11:53.834Z,100768.80
2018-05-13T11:14:21.998Z,100768.25
2018-05-13T11:16:50.189Z,100772.48
2018-05-13T11:19:18.520Z,100774.00
2018-05-13T11:21:46.696Z,100779.17
2018-05-13T11:24:14.878Z,100787.75
2018-05-13T11:26:43.044Z,100787.72
2018-05-13T11:29:11.228Z,100782.21
2018-05-13T11:31:39.421Z,100779.91
2018-05-13T11:34:07.608Z,100782.81
2018-05-13T11:36:35.803Z,100787.19
2018-05-13T11:39:04.614Z,100795.12
2018-05-13T11:41:32.813Z,100797.20
2018-05-13T11:44:01.006Z,100803.66
2018-05-13T11:46:29.180Z,100804.81
2018-05-13T11:48:57.366Z,100819.45
2018-05-13T11:51:25.535Z,100823.10
2018-05-13T11:53:53.741Z,100821.36
2018-05-13T11:56:21.936Z,100827.34
2018-05-13T11:58:50.151Z,100829.91
2018-05-13T12:01:18.326Z,100830.94
2018-05-13T12:03:46.481Z,100840.34
2018-05-13T12:06:14.703Z,100846.11
2018-05-13T12:08:42.870Z,100853.20
2018-05-13T12:11:11.049Z,100859.91
2018-05-13T12:13:39.274Z,100855.64
2018-05-13T12:16:07.493Z,100855.97
2018-05-13T12:18:35.675Z,100847.95
2018-05-13T12:21:03.926Z,100837.16
2018-05-13T12:23:32.100Z,100828.03
2018-05-13T12:26:00.293Z,100828.23
2018-05-13T12:28:28.533Z,100834.45
2018-05-13T12:30:56.700Z,100833.17
2018-05-13T12:33:24.888Z,100837.54
2018-05-13T12:35:53.086Z,100834.31
2018-05-13T12:38:21.247Z,100827.82
2018-05-13T12:40:49.464Z,100818.06
2018-05-13T12:43:17.662Z,100835.77
2018-05-13T12:45:45.849Z,100846.58
2018-05-13T12:48:14.028Z,100852.31
2018-05-13T12:50:42.204Z,100832.36
2018-05-13T12:53:10.362Z,100820.85
2018-05-13T12:55:38.544Z,100820.23
2018-05-13T12:58:06.719Z,100827.14
2018-05-13T13:00:34.909Z,100831.67
2018-05-13T13:03:03.118Z,100835.41
2018-05-13T13:05:31.308Z,100835.49
2018-05-13T13:07:59.493Z,100839.85
2018-05-13T13:10:27.672Z,100840.17
2018-05-13T13:12:55.936Z,100847.91
2018-05-13T13:15:24.046Z,100855.61
2018-05-13T13:17:52.247Z,100860.13
2018-05-13T13:20:20.423Z,100867.75
2018-05-13T13:22:48.624Z,100867.28
2018-05-13T13:25:16.816Z,100869.28
2018-05-13T13:27:45.009Z,100861.51
2018-05-13T13:30:13.197Z,100849.77
2018-05-13T13:32:41.393Z,100848.80
2018-05-13T13:35:09.551Z,100846.39
2018-05-13T13:37:37.731Z,100854.39
2018-05-13T13:40:05.907Z,100857.70
2018-05-13T13:42:34.099Z,100843.45
2018-05-13T13:45:02.274Z,100838.24
2018-05-13T13:47:30.447Z,100839.19
2018-05-13T13:49:58.635Z,100852.01
2018-05-13T13:52:26.844Z,100855.78
2018-05-13T13:54:55.028Z,100857.01
2018-05-13T13:57:23.212Z,100853.70
2018-05-13T13:59:51.424Z,100854.48
2018-05-13T14:02:19.608Z,100862.95
2018-05-13T14:04:47.797Z,100873.86
2018-05-13T14:07:15.997Z,100875.62
2018-05-13T14:09:44.222Z,100883.33
2018-05-13T14:12:12.422Z,100883.20
2018-05-13T14:14:40.624Z,100885.61
2018-05-13T14:17:08.810Z,100877.47
2018-05-13T14:19:36.997Z,100865.98
2018-05-13T14:22:05.261Z,100852.15
2018-05-13T14:24:33.445Z,100853.25
2018-05-13T14:27:01.763Z,100852.98
2018-05-13T14:29:29.859Z,100856.94
2018-05-13T14:31:58.013Z,100859.36
2018-05-13T14:34:26.239Z,100863.73
2018-05-13T14:36:54.444Z,100846.19
2018-05-13T14:39:22.640Z,100839.00
2018-05-13T14:41:50.806Z,100838.30
2018-05-13T14:44:19.006Z,100829.49
2018-05-13T14:46:47.190Z,100824.87
2018-05-13T14:49:15.415Z,100843.95
2018-05-13T14:51:43.584Z,100847.11
2018-05-13T14:54:11.803Z,100843.16
2018-05-13T14:56:39.963Z,100837.08
2018-05-13T14:59:08.244Z,100838.05
2018-05-13T15:01:36.418Z,100834.11
2018-05-13T15:04:04.601Z,100841.27
2018-05-13T15:06:32.797Z,100840.17
2018-05-13T15:09:00.990Z,100842.10
2018-05-13T15:11:29.212Z,100830.83
2018-05-13T15:13:57.401Z,100829.48
2018-05-13T15:16:25.558Z,100824.67
2018-05-13T15:18:53.992Z,100820.49
2018-05-13T15:21:22.211Z,100821.92
2018-05-13T15:23:50.386Z,100811.23
2018-05-13T15:26:18.576Z,100807.03
2018-05-13T15:28:46.733Z,100804.20
2018-05-13T15:31:14.922Z,100807.52
2018-05-13T15:33:43.119Z,100814.98
2018-05-13T15:36:11.348Z,100828.70
2018-05-13T15:38:39.697Z,100839.83
2018-05-13T15:41:07.924Z,100841.38
2018-05-13T15:43:36.191Z,100839.16
2018-05-13T15:46:04.337Z,100838.81
2018-05-13T15:48:32.549Z,100836.33
2018-05-13T15:51:00.703Z,100837.66
2018-05-13T15:53:28.913Z,100838.13
2018-05-13T15:55:57.134Z,100838.19
2018-05-13T15:58:25.332Z,100834.87
2018-05-13T16:00:53.526Z,100832.83
2018-05-13T16:03:21.730Z,100832.73
2018-05-13T16:05:49.931Z,100834.80
2018-05-13T16:08:18.132Z,100834.59
2018-05-13T16:10:46.326Z,100832.03
2018-05-13T16:13:14.499Z,100832.30
2018-05-13T16:15:42.725Z,100830.85
2018-05-13T16:18:10.920Z,100830.70
2018-05-13T16:20:39.134Z,100839.30
2018-05-13T16:23:07.363Z,100836.39
2018-05-13T16:25:35.599Z,100835.62
2018-05-13T16:28:03.786Z,100840.67
2018-05-13T16:30:32.004Z,100845.30
2018-05-13T16:33:00.219Z,100856.42
2018-05-13T16:35:28.463Z,100853.69
2018-05-13T16:37:56.679Z,100850.91
2018-05-13T16:40:24.874Z,100851.42
2018-05-13T16:42:53.072Z,100854.93
2018-05-13T16:45:21.291Z,100854.25
2018-05-13T16:47:49.470Z,100854.61
2018-05-13T16:50:17.687Z,100855.14
2018-05-13T16:52:45.865Z,100844.48
2018-05-13T16:55:14.074Z,100853.13
2018-05-13T16:57:42.317Z,100854.43
2018-05-13T17:00:10.849Z,100852.09
2018-05-13T17:02:39.028Z,100847.62
2018-05-13T17:05:07.249Z,100849.77
2018-05-13T17:07:35.465Z,100856.27
2018-05-13T17:10:03.624Z,100849.31
2018-05-13T17:12:31.824Z,100855.56
2018-05-13T17:15:00.034Z,100849.16
2018-05-13T17:17:28.263Z,100841.47
2018-05-13T17:19:56.404Z,100838.47
2018-05-13T17:22:24.611Z,100834.02
2018-05-13T17:24:52.838Z,100829.40
2018-05-13T17:27:21.026Z,100839.20
2018-05-13T17:29:49.237Z,100846.98
2018-05-13T17:32:17.384Z,100845.80
2018-05-13T17:34:45.584Z,100848.78
2018-05-13T17:37:13.857Z,100844.59
2018-05-13T17:39:41.985Z,100845.03
2018-05-13T17:42:10.176Z,100854.19
2018-05-13T17:44:38.353Z,100857.86
2018-05-13T17:47:06.538Z,100856.61
2018-05-13T17:49:34.806Z,100855.68
2018-05-13T17:52:02.892Z,100870.05
2018-05-13T17:54:31.067Z,100871.16
2018-05-13T17:56:59.265Z,100871.34
2018-05-13T17:59:27.458Z,100874.70
2018-05-13T18:01:55.673Z,100880.18
2018-05-13T18:04:23.847Z,100878.90
2018-05-13T18:06:52.079Z,100883.17
2018-05-13T18:09:20.278Z,100888.77
2018-05-13T18:11:48.469Z,100889.55
2018-05-13T18:14:16.707Z,100888.17
2018-05-13T18:16:44.906Z,100897.87
2018-05-13T18:19:13.109Z,100894.87
2018-05-13T18:21:41.405Z,100901.45
2018-05-13T18:24:09.487Z,100900.14
2018-05-13T18:26:37.710Z,100895.91
2018-05-13T18:29:05.898Z,100895.81
2018-05-13T18:31:34.088Z,100891.72
2018-05-13T18:34:02.307Z,100889.92
2018-05-13T18:36:30.490Z,100885.47
2018-05-13T18:38:58.748Z,100877.02
2018-05-13T18:41:26.880Z,100879.15
2018-05-13T18:43:55.085Z,100875.48
2018-05-13T18:46:23.248Z,100876.33
2018-05-13T18:48:51.480Z,100857.00
2018-05-13T18:51:19.754Z,100865.28
2018-05-13T18:53:47.948Z,100864.00
2018-05-13T18:56:16.132Z,100865.14
2018-05-13T18:58:44.294Z,100866.48
2018-05-13T19:01:12.512Z,100866.39
2018-05-13T19:03:40.701Z,100858.70
2018-05-13T19:06:08.902Z,100854.09
2018-05-13T19:08:37.091Z,100846.83
2018-05-13T19:11:05.269Z,100852.75
2018-05-13T19:13:33.457Z,100851.30
2018-05-13T19:16:01.650Z,100848.66
2018-05-13T19:18:29.827Z,100851.22
2018-05-13T19:20:58.005Z,100842.92
2018-05-13T19:23:26.218Z,100844.92
2018-05-13T19:25:54.385Z,100835.01
2018-05-13T19:28:22.589Z,100826.81
2018-05-13T19:30:50.809Z,100826.72
2018-05-13T19:33:18.965Z,100829.97
2018-05-13T19:35:47.177Z,100835.44
2018-05-13T19:38:15.393Z,100834.41
2018-05-13T19:40:43.559Z,100830.08
2018-05-13T19:43:11.754Z,100828.03
2018-05-13T19:45:39.973Z,100831.53
2018-05-13T19:48:08.234Z,100819.66
2018-05-13T19:50:36.361Z,100827.34
2018-05-13T19:53:04.575Z,100829.65
2018-05-13T19:55:32.775Z,100821.36
2018-05-13T19:58:00.960Z,100832.63
2018-05-13T20:00:29.175Z,100843.56
2018-05-13T20:02:57.442Z,100849.72
2018-05-13T20:05:25.548Z,100853.89
2018-05-13T20:07:53.756Z,100851.25
2018-05-13T20:10:21.940Z,100862.69
2018-05-13T20:12:50.131Z,100871.91
2018-05-13T20:15:18.319Z,100869.09
2018-05-13T20:17:46.518Z,100872.42
2018-05-13T20:20:14.694Z,100863.87
2018-05-13T20:22:42.893Z,100866.19
2018-05-13T20:25:11.067Z,100859.79
2018-05-13T20:27:39.286Z,100866.45
2018-05-13T20:30:07.481Z,100872.83
2018-05-13T20:32:35.679Z,100870.44
2018-05-13T20:35:03.888Z,100878.55
2018-05-13T20:37:32.075Z,100874.65
2018-05-13T20:40:00.299Z,100876.78
2018-05-13T20:42:28.467Z,100882.17
2018-05-13T20:44:56.690Z,100891.47
2018-05-13T20:47:24.898Z,100893.61
2018-05-13T20:49:53.072Z,100889.00
2018-05-13T20:52:21.253Z,100888.57
2018-05-13T20:54:49.449Z,100891.39
2018-05-13T20:57:17.610Z,100885.23
2018-05-13T20:59:45.829Z,100893.25
2018-05-13T21:02:14.025Z,100895.06
2018-05-13T21:04:42.220Z,100905.39
2018-05-13T21:07:10.422Z,100909.58
2018-05-13T21:09:38.595Z,100906.42
2018-05-13T21:12:06.839Z,100912.73
2018-05-13T21:14:35.067Z,100915.39
2018-05-13T21:17:03.284Z,100925.09
2018-05-13T21:19:31.513Z,100930.56
2018-05-13T21:21:59.733Z,100935.37
2018-05-13T21:24:27.946Z,100930.93
2018-05-13T21:26:56.167Z,100920.16
2018-05-13T21:29:24.343Z,100916.31
2018-05-13T21:31:52.534Z,100920.33
2018-05-13T21:34:20.737Z,100918.02
2018-05-13T21:36:48.933Z,100914.70
2018-05-13T21:39:17.137Z,100911.20
2018-05-13T21:41:45.316Z,100912.57
2018-05-13T21:44:13.523Z,100913.59
2018-05-13T21:46:41.696Z,100919.23
2018-05-13T21:49:09.875Z,100928.63
2018-05-13T21:51:38.055Z,100935.60
2018-05-13T21:54:06.282Z,100944.67
2018-05-13T21:56:34.497Z,100948.77
2018-05-13T21:59:02.670Z,100939.72
2018-05-13T22:01:30.827Z,100941.78
2018-05-13T22:03:59.022Z,100935.45
2018-05-13T22:06:27.195Z,100929.22
2018-05-13T22:08:58.441Z,100936.82
2018-05-13T22:11:26.609Z,100955.42
2018-05-13T22:13:54.782Z,100947.48
2018-05-13T22:16:22.963Z,100943.81
2018-05-13T22:18:51.187Z,100941.69
2018-05-13T22:21:19.381Z,100942.96
2018-05-13T22:23:47.556Z,100934.75
2018-05-13T22:26:15.743Z,100930.73
2018-05-13T22:28:43.908Z,100930.82
2018-05-13T22:31:12.104Z,100925.36
2018-05-13T22:33:40.287Z,100923.83
2018-05-13T22:36:08.498Z,100920.01
2018-05-13T22:38:36.690Z,100921.97
2018-05-13T22:41:04.914Z,100912.72
2018-05-13T22:43:33.107Z,100902.25
2018-05-13T22:46:01.272Z,100894.63
2018-05-13T22:48:29.445Z,100894.20
2018-05-13T22:50:57.634Z,100882.25
2018-05-13T22:53:25.857Z,100876.72
2018-05-13T22:55:54.030Z,100883.27
2018-05-13T22:58:22.224Z,100886.88
2018-05-13T23:00:50.363Z,100876.54
2018-05-13T23:03:18.569Z,100884.91
2018-05-13T23:05:46.761Z,100879.19
2018-05-13T23:08:14.943Z,100892.31
2018-05-13T23:10:43.109Z,100892.00
2018-05-13T23:13:11.337Z,100887.11
2018-05-13T23:15:39.518Z,100876.36
2018-05-13T23:18:07.682Z,100873.63
2018-05-13T23:20:35.850Z,100865.77
2018-05-13T23:23:04.048Z,100859.55
2018-05-13T23:25:32.208Z,100854.69
2018-05-13T23:28:00.403Z,100841.02
2018-05-13T23:30:28.608Z,100851.50
2018-05-13T23:32:56.722Z,100833.34
2018-05-13T23:35:24.922Z,100831.97
2018-05-13T23:37:53.095Z,100825.23
2018-05-13T23:40:21.292Z,100840.42
2018-05-13T23:42:49.466Z,100828.05
2018-05-13T23:45:17.641Z,100830.09
2018-05-13T23:47:45.818Z,100826.42
2018-05-13T23:50:14.070Z,100834.53
2018-05-13T23:52:42.319Z,100824.77
2018-05-13T23:55:10.424Z,100819.05
2018-05-13T23:57:38.609Z,100831.61
